sensor_id;sensor_type;location;lat;lon;timestamp;temperature;humidity
68801;SHT31;55784;50.734;7.086;2023-02-03T00:00:45;9.78;84.12
68801;SHT31;55784;50.734;7.086;2023-02-03T00:03:10;9.83;84.59
68801;SHT31;55784;50.734;7.086;2023-02-03T00:05:36;9.80;84.39
68801;SHT31;55784;50.734;7.086;2023-02-03T00:08:03;9.84;84.29
68801;SHT31;55784;50.734;7.086;2023-02-03T00:10:28;9.80;84.05
68801;SHT31;55784;50.734;7.086;2023-02-03T00:12:54;9.78;84.15
68801;SHT31;55784;50.734;7.086;2023-02-03T00:15:21;9.84;84.56
68801;SHT31;55784;50.734;7.086;2023-02-03T00:17:47;9.84;83.98
68801;SHT31;55784;50.734;7.086;2023-02-03T00:20:13;9.85;83.70
68801;SHT31;55784;50.734;7.086;2023-02-03T00:22:38;9.84;83.67
68801;SHT31;55784;50.734;7.086;2023-02-03T00:25:04;9.85;83.56
68801;SHT31;55784;50.734;7.086;2023-02-03T00:27:30;9.84;83.43
68801;SHT31;55784;50.734;7.086;2023-02-03T00:29:55;9.83;83.55
68801;SHT31;55784;50.734;7.086;2023-02-03T00:32:21;9.87;83.57
68801;SHT31;55784;50.734;7.086;2023-02-03T00:34:46;9.90;83.25
68801;SHT31;55784;50.734;7.086;2023-02-03T00:37:12;9.90;83.46
68801;SHT31;55784;50.734;7.086;2023-02-03T00:39:37;9.91;83.32
68801;SHT31;55784;50.734;7.086;2023-02-03T00:42:04;9.91;83.35
68801;SHT31;55784;50.734;7.086;2023-02-03T00:44:29;9.93;83.23
68801;SHT31;55784;50.734;7.086;2023-02-03T00:46:55;9.94;83.15
68801;SHT31;55784;50.734;7.086;2023-02-03T00:49:20;9.97;83.05
68801;SHT31;55784;50.734;7.086;2023-02-03T00:51:46;9.95;82.97
68801;SHT31;55784;50.734;7.086;2023-02-03T00:54:11;9.94;83.12
68801;SHT31;55784;50.734;7.086;2023-02-03T00:56:38;9.94;83.20
68801;SHT31;55784;50.734;7.086;2023-02-03T00:59:03;9.88;82.98
68801;SHT31;55784;50.734;7.086;2023-02-03T01:01:29;9.91;83.01
68801;SHT31;55784;50.734;7.086;2023-02-03T01:03:55;9.94;82.96
68801;SHT31;55784;50.734;7.086;2023-02-03T01:06:20;9.98;82.84
68801;SHT31;55784;50.734;7.086;2023-02-03T01:08:47;10.02;82.74
68801;SHT31;55784;50.734;7.086;2023-02-03T01:11:15;10.01;82.34
68801;SHT31;55784;50.734;7.086;2023-02-03T01:13:41;10.04;82.31
68801;SHT31;55784;50.734;7.086;2023-02-03T01:16:08;10.01;82.42
68801;SHT31;55784;50.734;7.086;2023-02-03T01:18:34;10.08;82.25
68801;SHT31;55784;50.734;7.086;2023-02-03T01:21:10;10.04;81.87
68801;SHT31;55784;50.734;7.086;2023-02-03T01:23:37;10.04;82.08
68801;SHT31;55784;50.734;7.086;2023-02-03T01:26:04;9.97;81.79
68801;SHT31;55784;50.734;7.086;2023-02-03T01:28:29;10.08;82.06
68801;SHT31;55784;50.734;7.086;2023-02-03T01:30:55;10.06;81.47
68801;SHT31;55784;50.734;7.086;2023-02-03T01:33:20;10.01;81.49
68801;SHT31;55784;50.734;7.086;2023-02-03T01:35:45;9.98;81.79
68801;SHT31;55784;50.734;7.086;2023-02-03T01:38:10;9.97;81.97
68801;SHT31;55784;50.734;7.086;2023-02-03T01:40:44;10.01;81.92
68801;SHT31;55784;50.734;7.086;2023-02-03T01:43:10;9.98;81.90
68801;SHT31;55784;50.734;7.086;2023-02-03T01:45:35;9.94;81.74
68801;SHT31;55784;50.734;7.086;2023-02-03T01:48:02;9.97;82.18
68801;SHT31;55784;50.734;7.086;2023-02-03T01:50:33;9.97;81.89
68801;SHT31;55784;50.734;7.086;2023-02-03T01:53:02;10.02;81.71
68801;SHT31;55784;50.734;7.086;2023-02-03T01:55:37;9.99;81.93
68801;SHT31;55784;50.734;7.086;2023-02-03T01:58:11;9.94;81.97
68801;SHT31;55784;50.734;7.086;2023-02-03T02:00:38;9.95;81.66
68801;SHT31;55784;50.734;7.086;2023-02-03T02:03:04;9.94;81.99
68801;SHT31;55784;50.734;7.086;2023-02-03T02:05:55;9.94;82.18
68801;SHT31;55784;50.734;7.086;2023-02-03T02:08:22;9.93;82.42
68801;SHT31;55784;50.734;7.086;2023-02-03T02:10:48;9.95;82.15
68801;SHT31;55784;50.734;7.086;2023-02-03T02:13:14;9.97;82.46
68801;SHT31;55784;50.734;7.086;2023-02-03T02:16:44;9.98;82.67
68801;SHT31;55784;50.734;7.086;2023-02-03T02:27:15;9.98;82.13
68801;SHT31;55784;50.734;7.086;2023-02-03T02:38:03;9.93;81.81
68801;SHT31;55784;50.734;7.086;2023-02-03T02:40:42;9.91;81.54
68801;SHT31;55784;50.734;7.086;2023-02-03T02:45:51;9.90;81.59
68801;SHT31;55784;50.734;7.086;2023-02-03T02:51:04;9.93;80.77
68801;SHT31;55784;50.734;7.086;2023-02-03T02:53:39;9.90;81.00
68801;SHT31;55784;50.734;7.086;2023-02-03T02:56:07;9.88;80.54
68801;SHT31;55784;50.734;7.086;2023-02-03T02:58:35;9.88;80.73
68801;SHT31;55784;50.734;7.086;2023-02-03T03:01:02;9.85;80.08
68801;SHT31;55784;50.734;7.086;2023-02-03T03:03:28;9.84;80.33
68801;SHT31;55784;50.734;7.086;2023-02-03T03:06:01;9.91;80.70
68801;SHT31;55784;50.734;7.086;2023-02-03T03:08:41;9.90;79.91
68801;SHT31;55784;50.734;7.086;2023-02-03T03:11:09;9.88;79.94
68801;SHT31;55784;50.734;7.086;2023-02-03T03:13:39;9.91;79.69
68801;SHT31;55784;50.734;7.086;2023-02-03T03:16:06;9.95;79.89
68801;SHT31;55784;50.734;7.086;2023-02-03T03:18:45;9.95;80.57
68801;SHT31;55784;50.734;7.086;2023-02-03T03:21:16;9.93;80.07
68801;SHT31;55784;50.734;7.086;2023-02-03T03:23:46;9.91;80.39
68801;SHT31;55784;50.734;7.086;2023-02-03T03:26:32;9.88;79.94
68801;SHT31;55784;50.734;7.086;2023-02-03T03:29:05;9.94;80.78
68801;SHT31;55784;50.734;7.086;2023-02-03T03:31:31;9.93;80.76
68801;SHT31;55784;50.734;7.086;2023-02-03T03:33:56;9.91;80.12
68801;SHT31;55784;50.734;7.086;2023-02-03T03:36:28;9.91;80.82
68801;SHT31;55784;50.734;7.086;2023-02-03T03:39:04;9.91;80.79
68801;SHT31;55784;50.734;7.086;2023-02-03T03:41:46;9.91;80.88
68801;SHT31;55784;50.734;7.086;2023-02-03T03:44:14;9.87;81.15
68801;SHT31;55784;50.734;7.086;2023-02-03T03:47:09;9.85;81.04
68801;SHT31;55784;50.734;7.086;2023-02-03T03:49:35;9.88;81.57
68801;SHT31;55784;50.734;7.086;2023-02-03T03:52:06;9.93;81.34
68801;SHT31;55784;50.734;7.086;2023-02-03T03:54:34;9.94;81.22
68801;SHT31;55784;50.734;7.086;2023-02-03T03:59:36;9.90;81.22
68801;SHT31;55784;50.734;7.086;2023-02-03T04:02:03;9.87;81.13
68801;SHT31;55784;50.734;7.086;2023-02-03T04:04:31;9.87;81.10
68801;SHT31;55784;50.734;7.086;2023-02-03T04:06:57;9.88;81.50
68801;SHT31;55784;50.734;7.086;2023-02-03T04:09:23;9.88;81.51
68801;SHT31;55784;50.734;7.086;2023-02-03T04:11:48;9.84;81.40
68801;SHT31;55784;50.734;7.086;2023-02-03T04:14:26;9.81;81.27
68801;SHT31;55784;50.734;7.086;2023-02-03T04:16:52;9.83;81.58
68801;SHT31;55784;50.734;7.086;2023-02-03T04:19:17;9.83;81.99
68801;SHT31;55784;50.734;7.086;2023-02-03T04:21:42;9.81;81.59
68801;SHT31;55784;50.734;7.086;2023-02-03T04:24:08;9.81;81.95
68801;SHT31;55784;50.734;7.086;2023-02-03T04:26:33;9.78;81.55
68801;SHT31;55784;50.734;7.086;2023-02-03T04:28:59;9.83;81.75
68801;SHT31;55784;50.734;7.086;2023-02-03T04:31:24;9.80;81.59
68801;SHT31;55784;50.734;7.086;2023-02-03T04:33:49;9.80;81.23
68801;SHT31;55784;50.734;7.086;2023-02-03T04:36:14;9.78;81.45
68801;SHT31;55784;50.734;7.086;2023-02-03T04:38:40;9.81;81.40
68801;SHT31;55784;50.734;7.086;2023-02-03T04:41:05;9.81;81.67
68801;SHT31;55784;50.734;7.086;2023-02-03T04:43:30;9.83;80.87
68801;SHT31;55784;50.734;7.086;2023-02-03T04:45:58;9.81;80.84
68801;SHT31;55784;50.734;7.086;2023-02-03T04:48:24;9.81;80.07
68801;SHT31;55784;50.734;7.086;2023-02-03T04:50:49;9.83;80.15
68801;SHT31;55784;50.734;7.086;2023-02-03T04:53:15;9.85;79.82
68801;SHT31;55784;50.734;7.086;2023-02-03T04:55:40;9.80;79.76
68801;SHT31;55784;50.734;7.086;2023-02-03T04:58:05;9.77;79.96
68801;SHT31;55784;50.734;7.086;2023-02-03T05:00:30;9.80;79.65
68801;SHT31;55784;50.734;7.086;2023-02-03T05:02:56;9.85;79.86
68801;SHT31;55784;50.734;7.086;2023-02-03T05:05:21;9.83;79.91
68801;SHT31;55784;50.734;7.086;2023-02-03T05:07:46;9.81;79.54
68801;SHT31;55784;50.734;7.086;2023-02-03T05:10:12;9.83;79.61
68801;SHT31;55784;50.734;7.086;2023-02-03T05:12:37;9.84;80.26
68801;SHT31;55784;50.734;7.086;2023-02-03T05:15:03;9.85;80.43
68801;SHT31;55784;50.734;7.086;2023-02-03T05:17:29;9.85;80.12
68801;SHT31;55784;50.734;7.086;2023-02-03T05:19:54;9.85;80.25
68801;SHT31;55784;50.734;7.086;2023-02-03T05:22:19;9.87;79.83
68801;SHT31;55784;50.734;7.086;2023-02-03T05:24:45;9.90;80.27
68801;SHT31;55784;50.734;7.086;2023-02-03T05:27:10;9.88;79.90
68801;SHT31;55784;50.734;7.086;2023-02-03T05:29:35;9.90;80.17
68801;SHT31;55784;50.734;7.086;2023-02-03T05:32:01;9.90;80.23
68801;SHT31;55784;50.734;7.086;2023-02-03T05:34:26;9.91;80.71
68801;SHT31;55784;50.734;7.086;2023-02-03T05:36:51;9.91;80.80
68801;SHT31;55784;50.734;7.086;2023-02-03T05:39:17;9.88;80.34
68801;SHT31;55784;50.734;7.086;2023-02-03T05:41:42;9.91;80.90
68801;SHT31;55784;50.734;7.086;2023-02-03T05:44:18;9.91;80.77
68801;SHT31;55784;50.734;7.086;2023-02-03T05:46:43;9.91;80.79
68801;SHT31;55784;50.734;7.086;2023-02-03T05:49:08;9.91;80.54
68801;SHT31;55784;50.734;7.086;2023-02-03T05:51:34;9.90;80.65
68801;SHT31;55784;50.734;7.086;2023-02-03T05:53:59;9.91;80.37
68801;SHT31;55784;50.734;7.086;2023-02-03T05:56:25;9.91;80.51
68801;SHT31;55784;50.734;7.086;2023-02-03T05:58:50;9.88;80.96
68801;SHT31;55784;50.734;7.086;2023-02-03T06:01:17;9.88;80.94
68801;SHT31;55784;50.734;7.086;2023-02-03T06:03:43;9.87;80.48
68801;SHT31;55784;50.734;7.086;2023-02-03T06:06:09;9.87;80.38
68801;SHT31;55784;50.734;7.086;2023-02-03T06:08:34;9.85;80.46
68801;SHT31;55784;50.734;7.086;2023-02-03T06:10:59;9.91;79.91
68801;SHT31;55784;50.734;7.086;2023-02-03T06:13:25;9.95;79.89
68801;SHT31;55784;50.734;7.086;2023-02-03T06:15:51;9.91;79.75
68801;SHT31;55784;50.734;7.086;2023-02-03T06:18:16;9.94;79.70
68801;SHT31;55784;50.734;7.086;2023-02-03T06:20:41;9.97;79.88
68801;SHT31;55784;50.734;7.086;2023-02-03T06:23:07;9.98;79.55
68801;SHT31;55784;50.734;7.086;2023-02-03T06:25:32;9.97;79.53
68801;SHT31;55784;50.734;7.086;2023-02-03T06:27:58;9.99;79.70
68801;SHT31;55784;50.734;7.086;2023-02-03T06:30:23;10.01;79.70
68801;SHT31;55784;50.734;7.086;2023-02-03T06:32:49;9.99;79.94
68801;SHT31;55784;50.734;7.086;2023-02-03T06:35:15;9.97;79.33
68801;SHT31;55784;50.734;7.086;2023-02-03T06:37:40;10.02;79.33
68801;SHT31;55784;50.734;7.086;2023-02-03T06:40:06;10.05;79.20
68801;SHT31;55784;50.734;7.086;2023-02-03T06:42:32;10.04;78.72
68801;SHT31;55784;50.734;7.086;2023-02-03T06:44:57;10.04;78.72
68801;SHT31;55784;50.734;7.086;2023-02-03T06:47:23;10.01;78.94
68801;SHT31;55784;50.734;7.086;2023-02-03T06:49:48;9.99;78.55
68801;SHT31;55784;50.734;7.086;2023-02-03T06:52:14;9.99;78.46
68801;SHT31;55784;50.734;7.086;2023-02-03T06:54:40;10.02;78.84
68801;SHT31;55784;50.734;7.086;2023-02-03T06:57:05;10.11;78.79
68801;SHT31;55784;50.734;7.086;2023-02-03T06:59:30;10.06;78.06
68801;SHT31;55784;50.734;7.086;2023-02-03T07:01:56;10.08;78.09
68801;SHT31;55784;50.734;7.086;2023-02-03T07:04:21;10.06;78.13
68801;SHT31;55784;50.734;7.086;2023-02-03T07:06:46;10.06;78.14
68801;SHT31;55784;50.734;7.086;2023-02-03T07:09:12;10.08;78.03
68801;SHT31;55784;50.734;7.086;2023-02-03T07:11:37;10.08;78.27
68801;SHT31;55784;50.734;7.086;2023-02-03T07:14:03;10.08;77.45
68801;SHT31;55784;50.734;7.086;2023-02-03T07:16:28;10.12;78.09
68801;SHT31;55784;50.734;7.086;2023-02-03T07:18:53;10.15;78.19
68801;SHT31;55784;50.734;7.086;2023-02-03T07:21:19;10.08;78.04
68801;SHT31;55784;50.734;7.086;2023-02-03T07:23:48;10.12;78.31
68801;SHT31;55784;50.734;7.086;2023-02-03T07:26:14;10.11;77.99
68801;SHT31;55784;50.734;7.086;2023-02-03T07:28:40;10.08;78.37
68801;SHT31;55784;50.734;7.086;2023-02-03T07:31:05;10.14;78.73
68801;SHT31;55784;50.734;7.086;2023-02-03T07:33:32;10.14;77.99
68801;SHT31;55784;50.734;7.086;2023-02-03T07:35:58;10.14;78.63
68801;SHT31;55784;50.734;7.086;2023-02-03T07:38:25;10.15;78.54
68801;SHT31;55784;50.734;7.086;2023-02-03T07:40:51;10.18;77.96
68801;SHT31;55784;50.734;7.086;2023-02-03T07:43:17;10.16;77.92
68801;SHT31;55784;50.734;7.086;2023-02-03T07:45:42;10.19;77.77
68801;SHT31;55784;50.734;7.086;2023-02-03T07:48:07;10.21;78.36
68801;SHT31;55784;50.734;7.086;2023-02-03T07:50:33;10.19;77.84
68801;SHT31;55784;50.734;7.086;2023-02-03T07:52:59;10.22;78.29
68801;SHT31;55784;50.734;7.086;2023-02-03T07:55:25;10.26;77.73
68801;SHT31;55784;50.734;7.086;2023-02-03T07:57:52;10.26;77.92
68801;SHT31;55784;50.734;7.086;2023-02-03T08:00:18;10.32;78.42
68801;SHT31;55784;50.734;7.086;2023-02-03T08:02:44;10.31;77.82
68801;SHT31;55784;50.734;7.086;2023-02-03T08:05:11;10.36;78.21
68801;SHT31;55784;50.734;7.086;2023-02-03T08:07:37;10.36;77.50
68801;SHT31;55784;50.734;7.086;2023-02-03T08:10:03;10.35;78.01
68801;SHT31;55784;50.734;7.086;2023-02-03T08:12:28;10.34;78.21
68801;SHT31;55784;50.734;7.086;2023-02-03T08:14:54;10.34;78.29
68801;SHT31;55784;50.734;7.086;2023-02-03T08:17:19;10.32;78.13
68801;SHT31;55784;50.734;7.086;2023-02-03T08:19:44;10.38;78.40
68801;SHT31;55784;50.734;7.086;2023-02-03T08:22:10;10.32;78.51
68801;SHT31;55784;50.734;7.086;2023-02-03T08:24:45;10.35;78.81
68801;SHT31;55784;50.734;7.086;2023-02-03T08:27:12;10.38;78.52
68801;SHT31;55784;50.734;7.086;2023-02-03T08:29:37;10.42;78.71
68801;SHT31;55784;50.734;7.086;2023-02-03T08:32:03;10.45;78.81
68801;SHT31;55784;50.734;7.086;2023-02-03T08:34:28;10.48;78.50
68801;SHT31;55784;50.734;7.086;2023-02-03T08:36:54;10.48;78.17
68801;SHT31;55784;50.734;7.086;2023-02-03T08:39:19;10.50;78.17
68801;SHT31;55784;50.734;7.086;2023-02-03T08:41:44;10.50;78.46
68801;SHT31;55784;50.734;7.086;2023-02-03T08:44:10;10.52;79.05
68801;SHT31;55784;50.734;7.086;2023-02-03T08:46:35;10.57;78.47
68801;SHT31;55784;50.734;7.086;2023-02-03T08:49:01;10.56;78.13
68801;SHT31;55784;50.734;7.086;2023-02-03T08:51:27;10.57;78.78
68801;SHT31;55784;50.734;7.086;2023-02-03T08:53:53;10.57;78.22
68801;SHT31;55784;50.734;7.086;2023-02-03T08:56:18;10.60;78.55
68801;SHT31;55784;50.734;7.086;2023-02-03T08:58:43;10.62;79.11
68801;SHT31;55784;50.734;7.086;2023-02-03T09:01:11;10.57;78.09
68801;SHT31;55784;50.734;7.086;2023-02-03T09:03:37;10.56;77.89
68801;SHT31;55784;50.734;7.086;2023-02-03T09:06:04;10.56;78.38
68801;SHT31;55784;50.734;7.086;2023-02-03T09:08:29;10.57;77.88
68801;SHT31;55784;50.734;7.086;2023-02-03T09:10:55;10.59;78.36
68801;SHT31;55784;50.734;7.086;2023-02-03T09:13:20;10.56;78.28
68801;SHT31;55784;50.734;7.086;2023-02-03T09:15:45;10.57;78.31
68801;SHT31;55784;50.734;7.086;2023-02-03T09:18:11;10.59;78.69
68801;SHT31;55784;50.734;7.086;2023-02-03T09:20:36;10.57;78.31
68801;SHT31;55784;50.734;7.086;2023-02-03T09:23:02;10.57;78.02
68801;SHT31;55784;50.734;7.086;2023-02-03T09:25:27;10.59;78.63
68801;SHT31;55784;50.734;7.086;2023-02-03T09:27:53;10.57;78.48
68801;SHT31;55784;50.734;7.086;2023-02-03T09:30:18;10.59;78.69
68801;SHT31;55784;50.734;7.086;2023-02-03T09:32:44;10.59;79.70
68801;SHT31;55784;50.734;7.086;2023-02-03T09:35:13;10.56;79.96
68801;SHT31;55784;50.734;7.086;2023-02-03T09:37:38;10.55;79.89
68801;SHT31;55784;50.734;7.086;2023-02-03T09:40:04;10.46;79.52
68801;SHT31;55784;50.734;7.086;2023-02-03T09:45:33;10.56;80.18
68801;SHT31;55784;50.734;7.086;2023-02-03T09:48:04;10.50;79.71
68801;SHT31;55784;50.734;7.086;2023-02-03T09:50:32;10.57;79.62
68801;SHT31;55784;50.734;7.086;2023-02-03T09:53:03;10.62;80.71
68801;SHT31;55784;50.734;7.086;2023-02-03T09:55:38;10.65;80.45
68801;SHT31;55784;50.734;7.086;2023-02-03T09:58:08;10.65;80.41
68801;SHT31;55784;50.734;7.086;2023-02-03T10:00:45;10.65;80.96
68801;SHT31;55784;50.734;7.086;2023-02-03T10:03:28;10.66;81.37
68801;SHT31;55784;50.734;7.086;2023-02-03T10:13:59;10.65;80.86
68801;SHT31;55784;50.734;7.086;2023-02-03T10:19:43;10.62;80.96
68801;SHT31;55784;50.734;7.086;2023-02-03T10:22:15;10.69;81.42
68801;SHT31;55784;50.734;7.086;2023-02-03T10:24:45;10.63;80.71
68801;SHT31;55784;50.734;7.086;2023-02-03T10:27:16;10.67;81.58
68801;SHT31;55784;50.734;7.086;2023-02-03T10:29:43;10.62;81.16
68801;SHT31;55784;50.734;7.086;2023-02-03T10:32:10;10.59;81.26
68801;SHT31;55784;50.734;7.086;2023-02-03T10:34:36;10.55;81.15
68801;SHT31;55784;50.734;7.086;2023-02-03T10:39:45;10.56;82.02
68801;SHT31;55784;50.734;7.086;2023-02-03T10:42:12;10.50;81.87
68801;SHT31;55784;50.734;7.086;2023-02-03T10:44:40;10.50;81.94
68801;SHT31;55784;50.734;7.086;2023-02-03T10:47:26;10.55;82.48
68801;SHT31;55784;50.734;7.086;2023-02-03T10:49:53;10.56;82.02
68801;SHT31;55784;50.734;7.086;2023-02-03T10:52:28;10.72;82.51
68801;SHT31;55784;50.734;7.086;2023-02-03T10:54:54;10.90;81.75
68801;SHT31;55784;50.734;7.086;2023-02-03T10:57:21;10.99;81.65
68801;SHT31;55784;50.734;7.086;2023-02-03T10:59:47;10.97;80.91
68801;SHT31;55784;50.734;7.086;2023-02-03T11:02:26;11.01;80.97
68801;SHT31;55784;50.734;7.086;2023-02-03T11:07:40;11.20;80.48
68801;SHT31;55784;50.734;7.086;2023-02-03T11:10:25;11.20;80.66
68801;SHT31;55784;50.734;7.086;2023-02-03T11:12:50;11.26;80.84
68801;SHT31;55784;50.734;7.086;2023-02-03T11:15:16;11.32;80.86
68801;SHT31;55784;50.734;7.086;2023-02-03T11:17:43;11.40;81.05
68801;SHT31;55784;50.734;7.086;2023-02-03T11:20:14;11.23;80.53
68801;SHT31;55784;50.734;7.086;2023-02-03T11:22:41;11.17;81.39
68801;SHT31;55784;50.734;7.086;2023-02-03T11:25:19;11.14;81.46
68801;SHT31;55784;50.734;7.086;2023-02-03T11:27:50;11.09;81.83
68801;SHT31;55784;50.734;7.086;2023-02-03T11:30:23;11.09;82.02
68801;SHT31;55784;50.734;7.086;2023-02-03T11:32:59;11.03;82.12
68801;SHT31;55784;50.734;7.086;2023-02-03T11:35:26;11.11;81.83
68801;SHT31;55784;50.734;7.086;2023-02-03T11:38:02;11.16;82.24
68801;SHT31;55784;50.734;7.086;2023-02-03T11:40:32;11.03;82.02
68801;SHT31;55784;50.734;7.086;2023-02-03T11:45:36;10.96;82.52
68801;SHT31;55784;50.734;7.086;2023-02-03T11:51:29;10.89;82.81
68801;SHT31;55784;50.734;7.086;2023-02-03T11:59:28;10.87;82.77
68801;SHT31;55784;50.734;7.086;2023-02-03T12:05:03;10.89;82.83
68801;SHT31;55784;50.734;7.086;2023-02-03T12:07:40;10.83;82.75
68801;SHT31;55784;50.734;7.086;2023-02-03T12:10:42;10.87;83.26
68801;SHT31;55784;50.734;7.086;2023-02-03T12:16:01;10.76;83.45
68801;SHT31;55784;50.734;7.086;2023-02-03T12:21:31;10.69;84.04
68801;SHT31;55784;50.734;7.086;2023-02-03T12:27:08;10.77;83.91
68801;SHT31;55784;50.734;7.086;2023-02-03T12:29:46;10.72;84.45
68801;SHT31;55784;50.734;7.086;2023-02-03T12:35:24;10.77;84.28
68801;SHT31;55784;50.734;7.086;2023-02-03T12:37:57;10.75;83.94
68801;SHT31;55784;50.734;7.086;2023-02-03T12:40:35;10.73;83.98
68801;SHT31;55784;50.734;7.086;2023-02-03T12:45:46;10.65;84.34
68801;SHT31;55784;50.734;7.086;2023-02-03T12:48:44;10.97;89.64
68801;SHT31;55784;50.734;7.086;2023-02-03T12:51:17;11.19;86.27
68801;SHT31;55784;50.734;7.086;2023-02-03T12:53:52;11.26;86.00
68801;SHT31;55784;50.734;7.086;2023-02-03T12:56:30;11.06;85.22
68801;SHT31;55784;50.734;7.086;2023-02-03T12:59:10;11.20;84.61
68801;SHT31;55784;50.734;7.086;2023-02-03T13:04:16;11.07;84.26
68801;SHT31;55784;50.734;7.086;2023-02-03T13:09:39;11.06;84.27
68801;SHT31;55784;50.734;7.086;2023-02-03T13:14:56;11.20;84.01
68801;SHT31;55784;50.734;7.086;2023-02-03T13:17:29;11.31;85.03
68801;SHT31;55784;50.734;7.086;2023-02-03T13:20:04;11.19;84.42
68801;SHT31;55784;50.734;7.086;2023-02-03T13:22:35;11.30;83.85
68801;SHT31;55784;50.734;7.086;2023-02-03T13:25:07;11.04;84.68
68801;SHT31;55784;50.734;7.086;2023-02-03T13:33:17;10.63;85.59
68801;SHT31;55784;50.734;7.086;2023-02-03T13:36:12;10.76;85.80
68801;SHT31;55784;50.734;7.086;2023-02-03T14:36:54;10.26;90.52
68801;SHT31;55784;50.734;7.086;2023-02-03T14:49:22;10.18;90.93
68801;SHT31;55784;50.734;7.086;2023-02-03T16:03:19;10.19;90.63
68801;SHT31;55784;50.734;7.086;2023-02-03T16:10:21;10.19;89.46
68801;SHT31;55784;50.734;7.086;2023-02-03T16:13:24;10.25;89.41
68801;SHT31;55784;50.734;7.086;2023-02-03T16:22:28;10.21;89.30
68801;SHT31;55784;50.734;7.086;2023-02-03T16:31:27;10.18;89.67
68801;SHT31;55784;50.734;7.086;2023-02-03T16:34:18;10.12;89.95
68801;SHT31;55784;50.734;7.086;2023-02-03T16:37:31;10.05;89.91
68801;SHT31;55784;50.734;7.086;2023-02-03T16:40:24;10.06;90.24
68801;SHT31;55784;50.734;7.086;2023-02-03T16:44:03;10.01;91.18
68801;SHT31;55784;50.734;7.086;2023-02-03T16:47:37;9.94;91.82
68801;SHT31;55784;50.734;7.086;2023-02-03T16:57:44;9.74;93.27
68801;SHT31;55784;50.734;7.086;2023-02-03T17:07:15;9.64;94.85
68801;SHT31;55784;50.734;7.086;2023-02-03T17:09:44;9.60;95.75
68801;SHT31;55784;50.734;7.086;2023-02-03T17:12:24;9.44;97.26
68801;SHT31;55784;50.734;7.086;2023-02-03T17:14:57;9.33;98.59
68801;SHT31;55784;50.734;7.086;2023-02-03T17:17:22;9.22;99.36
68801;SHT31;55784;50.734;7.086;2023-02-03T17:19:51;9.10;99.99
68801;SHT31;55784;50.734;7.086;2023-02-03T17:22:17;9.10;99.99
68801;SHT31;55784;50.734;7.086;2023-02-03T17:24:42;9.09;99.97
68801;SHT31;55784;50.734;7.086;2023-02-03T17:27:09;9.09;99.74
68801;SHT31;55784;50.734;7.086;2023-02-03T17:29:43;9.10;99.37
68801;SHT31;55784;50.734;7.086;2023-02-03T17:32:08;9.09;98.61
68801;SHT31;55784;50.734;7.086;2023-02-03T17:34:39;9.05;97.29
68801;SHT31;55784;50.734;7.086;2023-02-03T17:37:05;9.03;96.53
68801;SHT31;55784;50.734;7.086;2023-02-03T17:39:36;9.03;95.65
68801;SHT31;55784;50.734;7.086;2023-02-03T17:42:04;9.06;95.63
68801;SHT31;55784;50.734;7.086;2023-02-03T17:44:30;9.05;94.86
68801;SHT31;55784;50.734;7.086;2023-02-03T17:46:55;9.10;94.51
68801;SHT31;55784;50.734;7.086;2023-02-03T17:49:20;9.09;93.90
68801;SHT31;55784;50.734;7.086;2023-02-03T17:51:46;9.12;93.57
68801;SHT31;55784;50.734;7.086;2023-02-03T17:54:11;9.12;93.66
68801;SHT31;55784;50.734;7.086;2023-02-03T17:56:36;9.16;92.63
68801;SHT31;55784;50.734;7.086;2023-02-03T17:59:03;9.18;92.54
68801;SHT31;55784;50.734;7.086;2023-02-03T18:01:29;9.23;92.57
68801;SHT31;55784;50.734;7.086;2023-02-03T18:04:01;9.23;92.96
68801;SHT31;55784;50.734;7.086;2023-02-03T18:06:28;9.23;93.35
68801;SHT31;55784;50.734;7.086;2023-02-03T18:08:53;9.22;93.25
68801;SHT31;55784;50.734;7.086;2023-02-03T18:11:25;9.22;92.86
68801;SHT31;55784;50.734;7.086;2023-02-03T18:13:50;9.24;92.50
68801;SHT31;55784;50.734;7.086;2023-02-03T18:16:21;9.26;91.97
68801;SHT31;55784;50.734;7.086;2023-02-03T18:18:50;9.30;91.55
68801;SHT31;55784;50.734;7.086;2023-02-03T18:21:24;9.32;91.38
68801;SHT31;55784;50.734;7.086;2023-02-03T18:23:50;9.30;90.81
68801;SHT31;55784;50.734;7.086;2023-02-03T18:26:19;9.27;90.22
68801;SHT31;55784;50.734;7.086;2023-02-03T18:28:49;9.29;89.90
68801;SHT31;55784;50.734;7.086;2023-02-03T18:31:27;9.33;89.07
68801;SHT31;55784;50.734;7.086;2023-02-03T18:34:04;9.30;88.27
68801;SHT31;55784;50.734;7.086;2023-02-03T18:36:32;9.32;88.79
68801;SHT31;55784;50.734;7.086;2023-02-03T18:39:01;9.30;87.97
68801;SHT31;55784;50.734;7.086;2023-02-03T18:41:33;9.26;88.20
68801;SHT31;55784;50.734;7.086;2023-02-03T18:44:03;9.26;87.50
68801;SHT31;55784;50.734;7.086;2023-02-03T18:46:30;9.26;87.37
68801;SHT31;55784;50.734;7.086;2023-02-03T18:48:59;9.23;87.77
68801;SHT31;55784;50.734;7.086;2023-02-03T18:51:26;9.24;86.59
68801;SHT31;55784;50.734;7.086;2023-02-03T18:53:55;9.26;86.31
68801;SHT31;55784;50.734;7.086;2023-02-03T18:56:25;9.26;86.66
68801;SHT31;55784;50.734;7.086;2023-02-03T18:58:54;9.24;86.59
68801;SHT31;55784;50.734;7.086;2023-02-03T19:03:46;9.26;86.50
68801;SHT31;55784;50.734;7.086;2023-02-03T19:06:12;9.23;86.76
68801;SHT31;55784;50.734;7.086;2023-02-03T19:09:06;9.26;87.26
68801;SHT31;55784;50.734;7.086;2023-02-03T19:11:50;9.26;87.82
68801;SHT31;55784;50.734;7.086;2023-02-03T19:14:24;9.27;88.39
68801;SHT31;55784;50.734;7.086;2023-02-03T19:16:52;9.26;89.03
68801;SHT31;55784;50.734;7.086;2023-02-03T19:19:18;9.22;89.44
68801;SHT31;55784;50.734;7.086;2023-02-03T19:25:09;9.18;90.31
68801;SHT31;55784;50.734;7.086;2023-02-03T19:27:56;9.16;90.78
68801;SHT31;55784;50.734;7.086;2023-02-03T19:30:40;9.15;91.07
68801;SHT31;55784;50.734;7.086;2023-02-03T19:34:04;9.18;91.29
68801;SHT31;55784;50.734;7.086;2023-02-03T19:37:01;9.20;91.37
68801;SHT31;55784;50.734;7.086;2023-02-03T19:39:55;9.18;91.54
68801;SHT31;55784;50.734;7.086;2023-02-03T19:43:05;9.19;91.78
68801;SHT31;55784;50.734;7.086;2023-02-03T19:45:32;9.19;91.71
68801;SHT31;55784;50.734;7.086;2023-02-03T19:48:21;9.24;91.50
68801;SHT31;55784;50.734;7.086;2023-02-03T19:50:55;9.30;91.25
68801;SHT31;55784;50.734;7.086;2023-02-03T19:53:24;9.34;90.81
68801;SHT31;55784;50.734;7.086;2023-02-03T19:55:49;9.36;90.66
68801;SHT31;55784;50.734;7.086;2023-02-03T19:58:15;9.39;90.37
68801;SHT31;55784;50.734;7.086;2023-02-03T20:00:42;9.40;90.26
68801;SHT31;55784;50.734;7.086;2023-02-03T20:03:14;9.40;90.48
68801;SHT31;55784;50.734;7.086;2023-02-03T20:06:38;9.37;90.31
68801;SHT31;55784;50.734;7.086;2023-02-03T20:08:48;9.37;90.23
68801;SHT31;55784;50.734;7.086;2023-02-03T20:11:25;9.42;89.75
68801;SHT31;55784;50.734;7.086;2023-02-03T20:14:03;9.40;89.53
68801;SHT31;55784;50.734;7.086;2023-02-03T20:16:36;9.40;89.33
68801;SHT31;55784;50.734;7.086;2023-02-03T20:19:23;9.44;88.66
68801;SHT31;55784;50.734;7.086;2023-02-03T20:21:59;9.46;88.47